sensor_id;sensor_type;location;lat;lon;timestamp;temperature;humidity
63047;DHT22;62025;39.238;9.126;2023-01-23T00:01:06;7.10;68.20
63047;DHT22;62025;39.238;9.126;2023-01-23T00:03:36;7.00;68.10
63047;DHT22;62025;39.238;9.126;2023-01-23T00:06:08;7.10;67.90
63047;DHT22;62025;39.238;9.126;2023-01-23T00:08:37;7.10;67.90
63047;DHT22;62025;39.238;9.126;2023-01-23T00:11:09;7.10;67.80
63047;DHT22;62025;39.238;9.126;2023-01-23T00:13:40;7.10;68.00
63047;DHT22;62025;39.238;9.126;2023-01-23T00:16:17;7.20;67.70
63047;DHT22;62025;39.238;9.126;2023-01-23T00:18:45;7.10;67.90
63047;DHT22;62025;39.238;9.126;2023-01-23T00:21:14;7.10;67.90
63047;DHT22;62025;39.238;9.126;2023-01-23T00:23:44;7.10;67.80
63047;DHT22;62025;39.238;9.126;2023-01-23T00:26:13;7.10;67.70
63047;DHT22;62025;39.238;9.126;2023-01-23T00:28:44;7.10;67.60
63047;DHT22;62025;39.238;9.126;2023-01-23T00:31:15;7.00;67.60
63047;DHT22;62025;39.238;9.126;2023-01-23T00:33:43;7.00;67.50
63047;DHT22;62025;39.238;9.126;2023-01-23T00:36:11;7.00;67.40
63047;DHT22;62025;39.238;9.126;2023-01-23T00:38:38;6.90;67.50
63047;DHT22;62025;39.238;9.126;2023-01-23T00:41:05;6.90;67.60
63047;DHT22;62025;39.238;9.126;2023-01-23T00:43:31;6.80;67.80
63047;DHT22;62025;39.238;9.126;2023-01-23T00:45:58;6.80;67.80
63047;DHT22;62025;39.238;9.126;2023-01-23T00:48:24;6.80;67.50
63047;DHT22;62025;39.238;9.126;2023-01-23T00:50:50;6.90;67.30
63047;DHT22;62025;39.238;9.126;2023-01-23T00:53:16;7.00;67.10
63047;DHT22;62025;39.238;9.126;2023-01-23T00:55:42;6.90;67.10
63047;DHT22;62025;39.238;9.126;2023-01-23T00:58:09;6.80;67.30
63047;DHT22;62025;39.238;9.126;2023-01-23T01:00:36;6.80;67.40
63047;DHT22;62025;39.238;9.126;2023-01-23T01:03:04;6.80;67.50
63047;DHT22;62025;39.238;9.126;2023-01-23T01:05:30;6.80;67.60
63047;DHT22;62025;39.238;9.126;2023-01-23T01:07:56;6.80;67.80
63047;DHT22;62025;39.238;9.126;2023-01-23T01:10:22;6.80;67.70
63047;DHT22;62025;39.238;9.126;2023-01-23T01:12:50;6.90;67.50
63047;DHT22;62025;39.238;9.126;2023-01-23T01:15:16;6.90;67.40
63047;DHT22;62025;39.238;9.126;2023-01-23T01:17:42;6.90;67.40
63047;DHT22;62025;39.238;9.126;2023-01-23T01:20:10;6.80;67.60
63047;DHT22;62025;39.238;9.126;2023-01-23T01:22:36;6.90;67.50
63047;DHT22;62025;39.238;9.126;2023-01-23T01:25:02;6.80;67.80
63047;DHT22;62025;39.238;9.126;2023-01-23T01:27:29;6.90;68.00
63047;DHT22;62025;39.238;9.126;2023-01-23T01:29:55;6.90;68.00
63047;DHT22;62025;39.238;9.126;2023-01-23T01:32:21;6.80;68.10
63047;DHT22;62025;39.238;9.126;2023-01-23T01:34:49;6.90;68.00
63047;DHT22;62025;39.238;9.126;2023-01-23T01:37:16;6.80;68.00
63047;DHT22;62025;39.238;9.126;2023-01-23T01:39:42;6.80;68.00
63047;DHT22;62025;39.238;9.126;2023-01-23T01:42:08;6.90;67.80
63047;DHT22;62025;39.238;9.126;2023-01-23T01:48:13;6.70;68.20
63047;DHT22;62025;39.238;9.126;2023-01-23T01:50:40;6.70;68.00
63047;DHT22;62025;39.238;9.126;2023-01-23T01:53:07;6.70;67.80
63047;DHT22;62025;39.238;9.126;2023-01-23T01:55:34;6.70;67.50
63047;DHT22;62025;39.238;9.126;2023-01-23T01:58:01;6.70;67.20
63047;DHT22;62025;39.238;9.126;2023-01-23T02:00:27;6.60;66.80
63047;DHT22;62025;39.238;9.126;2023-01-23T02:02:55;6.60;66.30
63047;DHT22;62025;39.238;9.126;2023-01-23T02:05:32;6.60;66.20
63047;DHT22;62025;39.238;9.126;2023-01-23T02:08:12;6.60;66.10
63047;DHT22;62025;39.238;9.126;2023-01-23T02:10:43;6.60;66.00
63047;DHT22;62025;39.238;9.126;2023-01-23T02:15:54;6.50;66.40
63047;DHT22;62025;39.238;9.126;2023-01-23T02:18:23;6.60;66.50
63047;DHT22;62025;39.238;9.126;2023-01-23T02:20:51;6.50;66.50
63047;DHT22;62025;39.238;9.126;2023-01-23T02:24:21;6.60;66.40
63047;DHT22;62025;39.238;9.126;2023-01-23T02:26:33;6.70;66.10
63047;DHT22;62025;39.238;9.126;2023-01-23T02:29:03;6.60;66.10
63047;DHT22;62025;39.238;9.126;2023-01-23T02:31:33;6.60;66.30
63047;DHT22;62025;39.238;9.126;2023-01-23T02:34:00;6.60;66.30
63047;DHT22;62025;39.238;9.126;2023-01-23T02:36:30;6.60;66.50
63047;DHT22;62025;39.238;9.126;2023-01-23T02:39:07;6.60;66.70
63047;DHT22;62025;39.238;9.126;2023-01-23T02:41:40;6.60;66.70
63047;DHT22;62025;39.238;9.126;2023-01-23T02:46:49;6.60;66.70
63047;DHT22;62025;39.238;9.126;2023-01-23T02:49:15;6.60;66.90
63047;DHT22;62025;39.238;9.126;2023-01-23T02:51:41;6.70;66.90
63047;DHT22;62025;39.238;9.126;2023-01-23T02:54:07;6.70;66.80
63047;DHT22;62025;39.238;9.126;2023-01-23T02:56:34;6.70;66.60
63047;DHT22;62025;39.238;9.126;2023-01-23T02:59:00;6.80;66.70
63047;DHT22;62025;39.238;9.126;2023-01-23T03:01:44;6.70;66.80
63047;DHT22;62025;39.238;9.126;2023-01-23T03:04:10;6.70;66.70
63047;DHT22;62025;39.238;9.126;2023-01-23T03:06:37;6.60;66.60
63047;DHT22;62025;39.238;9.126;2023-01-23T03:09:05;6.60;66.80
63047;DHT22;62025;39.238;9.126;2023-01-23T03:11:40;6.50;66.60
63047;DHT22;62025;39.238;9.126;2023-01-23T03:14:15;6.60;66.40
63047;DHT22;62025;39.238;9.126;2023-01-23T03:16:43;6.50;66.30
63047;DHT22;62025;39.238;9.126;2023-01-23T03:19:15;6.50;66.50
63047;DHT22;62025;39.238;9.126;2023-01-23T03:21:43;6.40;66.80
63047;DHT22;62025;39.238;9.126;2023-01-23T03:24:11;6.30;67.10
63047;DHT22;62025;39.238;9.126;2023-01-23T03:26:41;6.40;66.80
63047;DHT22;62025;39.238;9.126;2023-01-23T03:29:23;6.30;66.80
63047;DHT22;62025;39.238;9.126;2023-01-23T03:32:11;6.30;66.70
63047;DHT22;62025;39.238;9.126;2023-01-23T03:34:38;6.30;66.70
63047;DHT22;62025;39.238;9.126;2023-01-23T03:37:04;6.20;66.70
63047;DHT22;62025;39.238;9.126;2023-01-23T03:39:33;6.30;66.60
63047;DHT22;62025;39.238;9.126;2023-01-23T03:42:19;6.30;66.50
63047;DHT22;62025;39.238;9.126;2023-01-23T03:44:47;6.30;66.50
63047;DHT22;62025;39.238;9.126;2023-01-23T03:47:13;6.30;66.40
63047;DHT22;62025;39.238;9.126;2023-01-23T03:49:39;6.30;66.40
63047;DHT22;62025;39.238;9.126;2023-01-23T03:52:06;6.40;66.40
63047;DHT22;62025;39.238;9.126;2023-01-23T03:54:32;6.40;66.50
63047;DHT22;62025;39.238;9.126;2023-01-23T03:57:00;6.40;66.70
63047;DHT22;62025;39.238;9.126;2023-01-23T03:59:52;6.40;66.60
63047;DHT22;62025;39.238;9.126;2023-01-23T04:02:22;6.40;66.60
63047;DHT22;62025;39.238;9.126;2023-01-23T04:04:49;6.40;66.70
63047;DHT22;62025;39.238;9.126;2023-01-23T04:07:16;6.30;66.90
63047;DHT22;62025;39.238;9.126;2023-01-23T04:09:43;6.30;67.20
63047;DHT22;62025;39.238;9.126;2023-01-23T04:12:10;6.30;67.10
63047;DHT22;62025;39.238;9.126;2023-01-23T04:14:40;6.20;67.10
63047;DHT22;62025;39.238;9.126;2023-01-23T04:17:07;6.30;67.10
63047;DHT22;62025;39.238;9.126;2023-01-23T04:19:34;6.30;66.90
63047;DHT22;62025;39.238;9.126;2023-01-23T04:22:01;6.20;67.20
63047;DHT22;62025;39.238;9.126;2023-01-23T04:24:32;6.30;67.10
63047;DHT22;62025;39.238;9.126;2023-01-23T04:26:58;6.20;67.20
63047;DHT22;62025;39.238;9.126;2023-01-23T04:29:26;6.20;67.10
63047;DHT22;62025;39.238;9.126;2023-01-23T04:31:53;6.20;67.10
63047;DHT22;62025;39.238;9.126;2023-01-23T04:34:19;6.10;67.40
63047;DHT22;62025;39.238;9.126;2023-01-23T04:36:47;6.10;67.80
63047;DHT22;62025;39.238;9.126;2023-01-23T04:39:13;6.00;67.80
63047;DHT22;62025;39.238;9.126;2023-01-23T04:41:42;6.10;68.00
63047;DHT22;62025;39.238;9.126;2023-01-23T04:44:21;6.20;67.80
63047;DHT22;62025;39.238;9.126;2023-01-23T04:47:02;6.30;67.50
63047;DHT22;62025;39.238;9.126;2023-01-23T04:49:28;6.30;67.30
63047;DHT22;62025;39.238;9.126;2023-01-23T04:51:54;6.30;67.20
63047;DHT22;62025;39.238;9.126;2023-01-23T04:54:24;6.30;67.10
63047;DHT22;62025;39.238;9.126;2023-01-23T04:56:52;6.30;67.30
63047;DHT22;62025;39.238;9.126;2023-01-23T04:59:19;6.20;67.60
63047;DHT22;62025;39.238;9.126;2023-01-23T05:01:46;6.20;67.80
63047;DHT22;62025;39.238;9.126;2023-01-23T05:04:12;6.10;68.10
63047;DHT22;62025;39.238;9.126;2023-01-23T05:06:38;6.20;68.00
63047;DHT22;62025;39.238;9.126;2023-01-23T05:09:06;6.20;67.80
63047;DHT22;62025;39.238;9.126;2023-01-23T05:11:37;6.20;67.70
63047;DHT22;62025;39.238;9.126;2023-01-23T05:14:05;6.20;67.70
63047;DHT22;62025;39.238;9.126;2023-01-23T05:16:31;6.20;67.70
63047;DHT22;62025;39.238;9.126;2023-01-23T05:19:17;6.20;67.80
63047;DHT22;62025;39.238;9.126;2023-01-23T05:21:44;6.20;67.80
63047;DHT22;62025;39.238;9.126;2023-01-23T05:24:16;6.20;67.70
63047;DHT22;62025;39.238;9.126;2023-01-23T05:26:43;6.20;67.80
63047;DHT22;62025;39.238;9.126;2023-01-23T05:29:09;6.20;67.80
63047;DHT22;62025;39.238;9.126;2023-01-23T05:31:43;6.20;67.80
63047;DHT22;62025;39.238;9.126;2023-01-23T05:34:29;6.20;67.70
63047;DHT22;62025;39.238;9.126;2023-01-23T05:36:58;6.20;67.80
63047;DHT22;62025;39.238;9.126;2023-01-23T05:39:24;6.20;67.70
63047;DHT22;62025;39.238;9.126;2023-01-23T05:41:50;6.20;67.60
63047;DHT22;62025;39.238;9.126;2023-01-23T05:44:34;6.20;67.40
63047;DHT22;62025;39.238;9.126;2023-01-23T05:47:09;6.00;67.60
63047;DHT22;62025;39.238;9.126;2023-01-23T05:49:36;6.00;67.50
63047;DHT22;62025;39.238;9.126;2023-01-23T05:52:02;6.10;67.40
63047;DHT22;62025;39.238;9.126;2023-01-23T05:54:30;5.90;67.40
63047;DHT22;62025;39.238;9.126;2023-01-23T05:56:57;5.80;67.40
63047;DHT22;62025;39.238;9.126;2023-01-23T05:59:58;5.90;67.20
63047;DHT22;62025;39.238;9.126;2023-01-23T06:02:55;5.80;67.30
63047;DHT22;62025;39.238;9.126;2023-01-23T06:05:33;5.80;67.20
63047;DHT22;62025;39.238;9.126;2023-01-23T06:08:03;5.80;67.00
63047;DHT22;62025;39.238;9.126;2023-01-23T06:10:29;5.80;67.10
63047;DHT22;62025;39.238;9.126;2023-01-23T06:12:56;5.80;67.30
63047;DHT22;62025;39.238;9.126;2023-01-23T06:15:22;5.70;67.40
63047;DHT22;62025;39.238;9.126;2023-01-23T06:17:50;5.80;67.50
63047;DHT22;62025;39.238;9.126;2023-01-23T06:20:17;5.80;67.30
63047;DHT22;62025;39.238;9.126;2023-01-23T06:22:45;5.80;67.20
63047;DHT22;62025;39.238;9.126;2023-01-23T06:25:12;5.80;67.00
63047;DHT22;62025;39.238;9.126;2023-01-23T06:27:40;5.80;67.20
63047;DHT22;62025;39.238;9.126;2023-01-23T06:30:08;5.80;67.30
63047;DHT22;62025;39.238;9.126;2023-01-23T06:32:38;5.70;67.30
63047;DHT22;62025;39.238;9.126;2023-01-23T06:35:07;5.70;67.40
63047;DHT22;62025;39.238;9.126;2023-01-23T06:37:37;5.80;67.50
63047;DHT22;62025;39.238;9.126;2023-01-23T06:40:04;5.80;67.30
63047;DHT22;62025;39.238;9.126;2023-01-23T06:42:31;5.80;67.30
63047;DHT22;62025;39.238;9.126;2023-01-23T06:44:57;5.80;67.50
63047;DHT22;62025;39.238;9.126;2023-01-23T06:47:25;5.80;67.30
63047;DHT22;62025;39.238;9.126;2023-01-23T06:49:57;5.90;67.00
63047;DHT22;62025;39.238;9.126;2023-01-23T06:52:25;5.90;67.00
63047;DHT22;62025;39.238;9.126;2023-01-23T06:54:51;5.90;67.20
63047;DHT22;62025;39.238;9.126;2023-01-23T06:57:17;6.00;67.10
63047;DHT22;62025;39.238;9.126;2023-01-23T06:59:45;6.20;66.80
63047;DHT22;62025;39.238;9.126;2023-01-23T07:02:13;6.20;66.50
63047;DHT22;62025;39.238;9.126;2023-01-23T07:04:45;6.00;66.80
63047;DHT22;62025;39.238;9.126;2023-01-23T07:07:11;6.00;67.20
63047;DHT22;62025;39.238;9.126;2023-01-23T07:09:39;6.10;67.30
63047;DHT22;62025;39.238;9.126;2023-01-23T07:12:14;6.30;67.70
63047;DHT22;62025;39.238;9.126;2023-01-23T07:14:40;6.50;66.80
63047;DHT22;62025;39.238;9.126;2023-01-23T07:17:08;6.50;65.70
63047;DHT22;62025;39.238;9.126;2023-01-23T07:19:34;6.50;65.40
63047;DHT22;62025;39.238;9.126;2023-01-23T07:22:04;6.70;64.50
63047;DHT22;62025;39.238;9.126;2023-01-23T07:24:30;6.90;63.70
63047;DHT22;62025;39.238;9.126;2023-01-23T07:26:57;7.00;63.50
63047;DHT22;62025;39.238;9.126;2023-01-23T07:29:23;7.10;63.20
63047;DHT22;62025;39.238;9.126;2023-01-23T07:31:49;7.20;62.80
63047;DHT22;62025;39.238;9.126;2023-01-23T07:34:15;7.30;62.80
63047;DHT22;62025;39.238;9.126;2023-01-23T07:36:41;7.50;61.90
63047;DHT22;62025;39.238;9.126;2023-01-23T07:39:07;7.60;61.60
63047;DHT22;62025;39.238;9.126;2023-01-23T07:41:34;7.80;61.20
63047;DHT22;62025;39.238;9.126;2023-01-23T07:44:03;7.90;61.10
63047;DHT22;62025;39.238;9.126;2023-01-23T07:46:29;8.20;60.30
63047;DHT22;62025;39.238;9.126;2023-01-23T07:48:55;8.30;59.70
63047;DHT22;62025;39.238;9.126;2023-01-23T07:51:21;8.30;59.40
63047;DHT22;62025;39.238;9.126;2023-01-23T07:53:47;8.50;59.20
63047;DHT22;62025;39.238;9.126;2023-01-23T07:56:13;8.60;58.70
63047;DHT22;62025;39.238;9.126;2023-01-23T07:58:39;8.80;58.20
63047;DHT22;62025;39.238;9.126;2023-01-23T08:01:09;8.80;58.00
63047;DHT22;62025;39.238;9.126;2023-01-23T08:03:36;9.00;57.50
63047;DHT22;62025;39.238;9.126;2023-01-23T08:06:02;9.10;57.50
63047;DHT22;62025;39.238;9.126;2023-01-23T08:08:28;9.20;56.90
63047;DHT22;62025;39.238;9.126;2023-01-23T08:10:55;9.30;57.10
63047;DHT22;62025;39.238;9.126;2023-01-23T08:13:21;9.60;56.60
63047;DHT22;62025;39.238;9.126;2023-01-23T08:15:47;9.70;56.40
63047;DHT22;62025;39.238;9.126;2023-01-23T08:18:13;9.70;56.20
63047;DHT22;62025;39.238;9.126;2023-01-23T08:20:39;9.90;56.30
63047;DHT22;62025;39.238;9.126;2023-01-23T08:23:05;10.10;55.80
63047;DHT22;62025;39.238;9.126;2023-01-23T08:25:31;10.20;55.30
63047;DHT22;62025;39.238;9.126;2023-01-23T08:27:57;10.70;55.00
63047;DHT22;62025;39.238;9.126;2023-01-23T08:30:23;10.90;54.20
63047;DHT22;62025;39.238;9.126;2023-01-23T08:32:50;10.80;53.90
63047;DHT22;62025;39.238;9.126;2023-01-23T08:35:16;11.00;53.90
63047;DHT22;62025;39.238;9.126;2023-01-23T08:37:43;11.20;54.10
63047;DHT22;62025;39.238;9.126;2023-01-23T08:40:09;11.30;53.70
63047;DHT22;62025;39.238;9.126;2023-01-23T08:42:36;11.50;53.50
63047;DHT22;62025;39.238;9.126;2023-01-23T08:45:02;11.60;52.80
63047;DHT22;62025;39.238;9.126;2023-01-23T08:47:29;11.80;52.30
63047;DHT22;62025;39.238;9.126;2023-01-23T08:50:01;12.20;51.90
63047;DHT22;62025;39.238;9.126;2023-01-23T08:52:27;12.50;51.30
63047;DHT22;62025;39.238;9.126;2023-01-23T08:54:54;12.50;51.00
63047;DHT22;62025;39.238;9.126;2023-01-23T08:57:20;12.50;50.70
63047;DHT22;62025;39.238;9.126;2023-01-23T08:59:46;12.50;50.10
63047;DHT22;62025;39.238;9.126;2023-01-23T09:02:12;12.60;50.10
63047;DHT22;62025;39.238;9.126;2023-01-23T09:04:38;12.80;50.10
63047;DHT22;62025;39.238;9.126;2023-01-23T09:07:04;13.00;50.10
63047;DHT22;62025;39.238;9.126;2023-01-23T09:09:30;13.00;49.90
63047;DHT22;62025;39.238;9.126;2023-01-23T09:11:56;13.20;49.90
63047;DHT22;62025;39.238;9.126;2023-01-23T09:14:22;13.30;49.60
63047;DHT22;62025;39.238;9.126;2023-01-23T09:16:48;13.30;49.50
63047;DHT22;62025;39.238;9.126;2023-01-23T09:19:14;13.30;49.90
63047;DHT22;62025;39.238;9.126;2023-01-23T09:21:40;13.40;49.60
63047;DHT22;62025;39.238;9.126;2023-01-23T09:24:06;13.50;49.20
63047;DHT22;62025;39.238;9.126;2023-01-23T09:26:33;13.70;49.20
63047;DHT22;62025;39.238;9.126;2023-01-23T09:28:59;13.80;48.90
63047;DHT22;62025;39.238;9.126;2023-01-23T09:31:26;13.90;48.70
63047;DHT22;62025;39.238;9.126;2023-01-23T09:33:52;14.00;48.60
63047;DHT22;62025;39.238;9.126;2023-01-23T09:36:18;14.10;48.40
63047;DHT22;62025;39.238;9.126;2023-01-23T09:38:46;14.20;48.40
63047;DHT22;62025;39.238;9.126;2023-01-23T09:41:19;14.30;48.00
63047;DHT22;62025;39.238;9.126;2023-01-23T09:47:23;14.40;46.20
63047;DHT22;62025;39.238;9.126;2023-01-23T09:50:05;14.50;45.50
63047;DHT22;62025;39.238;9.126;2023-01-23T09:52:44;14.60;45.10
63047;DHT22;62025;39.238;9.126;2023-01-23T09:55:46;14.70;45.20
63047;DHT22;62025;39.238;9.126;2023-01-23T09:58:46;14.80;44.70
63047;DHT22;62025;39.238;9.126;2023-01-23T10:01:27;14.80;44.50
63047;DHT22;62025;39.238;9.126;2023-01-23T10:03:55;14.90;44.30
63047;DHT22;62025;39.238;9.126;2023-01-23T10:06:25;14.90;44.50
63047;DHT22;62025;39.238;9.126;2023-01-23T10:09:07;14.90;43.80
63047;DHT22;62025;39.238;9.126;2023-01-23T10:17:44;15.40;43.40
63047;DHT22;62025;39.238;9.126;2023-01-23T10:25:49;15.50;44.20
63047;DHT22;62025;39.238;9.126;2023-01-23T10:28:38;15.50;44.00
63047;DHT22;62025;39.238;9.126;2023-01-23T10:31:11;15.50;44.20
63047;DHT22;62025;39.238;9.126;2023-01-23T10:39:48;15.30;43.80
63047;DHT22;62025;39.238;9.126;2023-01-23T10:42:21;15.30;43.30
63047;DHT22;62025;39.238;9.126;2023-01-23T10:44:48;15.10;43.90
63047;DHT22;62025;39.238;9.126;2023-01-23T10:47:28;15.10;44.30
63047;DHT22;62025;39.238;9.126;2023-01-23T10:49:59;15.00;44.40
63047;DHT22;62025;39.238;9.126;2023-01-23T10:52:33;15.30;44.20
63047;DHT22;62025;39.238;9.126;2023-01-23T10:58:01;15.00;45.00
63047;DHT22;62025;39.238;9.126;2023-01-23T11:00:36;15.60;51.90
63047;DHT22;62025;39.238;9.126;2023-01-23T11:03:37;15.50;47.80
63047;DHT22;62025;39.238;9.126;2023-01-23T11:06:06;15.70;45.40
63047;DHT22;62025;39.238;9.126;2023-01-23T11:08:38;15.60;44.70
63047;DHT22;62025;39.238;9.126;2023-01-23T11:13:41;15.40;44.20
63047;DHT22;62025;39.238;9.126;2023-01-23T11:16:14;15.40;44.20
63047;DHT22;62025;39.238;9.126;2023-01-23T11:18:51;14.90;43.70
63047;DHT22;62025;39.238;9.126;2023-01-23T11:22:03;14.60;44.80
63047;DHT22;62025;39.238;9.126;2023-01-23T11:32:21;13.80;45.90
63047;DHT22;62025;39.238;9.126;2023-01-23T11:34:51;13.60;45.50
63047;DHT22;62025;39.238;9.126;2023-01-23T11:37:31;13.70;45.50
63047;DHT22;62025;39.238;9.126;2023-01-23T11:40:11;13.60;45.40
63047;DHT22;62025;39.238;9.126;2023-01-23T11:42:42;13.60;46.30
63047;DHT22;62025;39.238;9.126;2023-01-23T11:48:13;13.30;46.10
63047;DHT22;62025;39.238;9.126;2023-01-23T11:50:51;13.30;44.30
63047;DHT22;62025;39.238;9.126;2023-01-23T12:10:32;12.80;45.50
63047;DHT22;62025;39.238;9.126;2023-01-23T12:18:46;12.70;46.50
63047;DHT22;62025;39.238;9.126;2023-01-23T12:41:33;12.00;48.30
63047;DHT22;62025;39.238;9.126;2023-01-23T12:44:20;12.30;48.80
63047;DHT22;62025;39.238;9.126;2023-01-23T12:46:54;12.30;48.70
63047;DHT22;62025;39.238;9.126;2023-01-23T12:49:43;12.10;49.80
63047;DHT22;62025;39.238;9.126;2023-01-23T12:55:12;12.30;50.60
63047;DHT22;62025;39.238;9.126;2023-01-23T12:57:41;11.90;52.10
63047;DHT22;62025;39.238;9.126;2023-01-23T13:06:55;11.50;57.10
63047;DHT22;62025;39.238;9.126;2023-01-23T13:12:24;11.30;58.90
63047;DHT22;62025;39.238;9.126;2023-01-23T13:14:52;11.30;59.20
63047;DHT22;62025;39.238;9.126;2023-01-23T13:17:36;11.30;59.40
63047;DHT22;62025;39.238;9.126;2023-01-23T13:36:52;10.90;62.20
63047;DHT22;62025;39.238;9.126;2023-01-23T13:39:26;10.70;63.50
63047;DHT22;62025;39.238;9.126;2023-01-23T13:45:13;10.80;63.90
63047;DHT22;62025;39.238;9.126;2023-01-23T13:50:53;10.80;64.20
63047;DHT22;62025;39.238;9.126;2023-01-23T13:53:26;10.80;64.70
63047;DHT22;62025;39.238;9.126;2023-01-23T13:56:20;10.90;64.90
63047;DHT22;62025;39.238;9.126;2023-01-23T13:59:23;11.00;64.50
63047;DHT22;62025;39.238;9.126;2023-01-23T14:05:23;10.80;65.20
63047;DHT22;62025;39.238;9.126;2023-01-23T14:08:03;10.90;64.70
63047;DHT22;62025;39.238;9.126;2023-01-23T14:10:35;10.80;65.60
63047;DHT22;62025;39.238;9.126;2023-01-23T14:15:33;10.90;65.60
63047;DHT22;62025;39.238;9.126;2023-01-23T14:21:22;11.10;65.50
63047;DHT22;62025;39.238;9.126;2023-01-23T14:23:58;11.20;65.30
63047;DHT22;62025;39.238;9.126;2023-01-23T14:26:30;11.20;65.80
63047;DHT22;62025;39.238;9.126;2023-01-23T14:29:00;11.30;65.80
63047;DHT22;62025;39.238;9.126;2023-01-23T14:31:41;11.00;65.80
63047;DHT22;62025;39.238;9.126;2023-01-23T14:34:16;11.00;66.40
63047;DHT22;62025;39.238;9.126;2023-01-23T14:36:55;11.20;65.50
63047;DHT22;62025;39.238;9.126;2023-01-23T14:39:29;11.30;64.90
63047;DHT22;62025;39.238;9.126;2023-01-23T14:41:58;11.30;65.30
63047;DHT22;62025;39.238;9.126;2023-01-23T14:44:51;11.40;64.80
63047;DHT22;62025;39.238;9.126;2023-01-23T14:47:33;11.30;64.70
63047;DHT22;62025;39.238;9.126;2023-01-23T14:50:08;11.40;64.70
63047;DHT22;62025;39.238;9.126;2023-01-23T14:52:36;11.30;65.10
63047;DHT22;62025;39.238;9.126;2023-01-23T14:55:02;11.30;64.70
63047;DHT22;62025;39.238;9.126;2023-01-23T14:57:28;11.30;64.40
63047;DHT22;62025;39.238;9.126;2023-01-23T14:59:56;11.30;64.70
63047;DHT22;62025;39.238;9.126;2023-01-23T15:02:30;11.30;64.80
63047;DHT22;62025;39.238;9.126;2023-01-23T15:07:45;11.30;63.80
63047;DHT22;62025;39.238;9.126;2023-01-23T15:10:25;11.30;64.30
63047;DHT22;62025;39.238;9.126;2023-01-23T15:13:10;11.30;64.90
63047;DHT22;62025;39.238;9.126;2023-01-23T15:15:43;11.30;64.80
63047;DHT22;62025;39.238;9.126;2023-01-23T15:18:21;11.20;65.50
63047;DHT22;62025;39.238;9.126;2023-01-23T15:21:06;11.20;65.70
63047;DHT22;62025;39.238;9.126;2023-01-23T15:23:36;11.20;65.40
63047;DHT22;62025;39.238;9.126;2023-01-23T15:28:57;11.30;65.30
63047;DHT22;62025;39.238;9.126;2023-01-23T15:41:59;11.30;66.20
63047;DHT22;62025;39.238;9.126;2023-01-23T15:44:29;11.30;66.30
63047;DHT22;62025;39.238;9.126;2023-01-23T15:46:57;11.30;66.40
63047;DHT22;62025;39.238;9.126;2023-01-23T15:49:29;11.30;66.50
63047;DHT22;62025;39.238;9.126;2023-01-23T15:51:58;11.30;66.70
63047;DHT22;62025;39.238;9.126;2023-01-23T15:54:34;11.30;66.90
63047;DHT22;62025;39.238;9.126;2023-01-23T15:57:02;11.30;67.40
63047;DHT22;62025;39.238;9.126;2023-01-23T15:59:29;11.20;67.40
63047;DHT22;62025;39.238;9.126;2023-01-23T16:01:57;11.20;67.10
63047;DHT22;62025;39.238;9.126;2023-01-23T16:04:23;11.00;67.40
63047;DHT22;62025;39.238;9.126;2023-01-23T16:06:50;11.10;67.10
63047;DHT22;62025;39.238;9.126;2023-01-23T16:09:22;11.20;67.20
63047;DHT22;62025;39.238;9.126;2023-01-23T16:11:57;11.20;66.70
63047;DHT22;62025;39.238;9.126;2023-01-23T16:14:24;11.30;66.30
63047;DHT22;62025;39.238;9.126;2023-01-23T16:16:50;11.30;65.70
63047;DHT22;62025;39.238;9.126;2023-01-23T16:19:16;11.30;65.70
63047;DHT22;62025;39.238;9.126;2023-01-23T16:21:43;11.30;65.60
63047;DHT22;62025;39.238;9.126;2023-01-23T16:24:20;11.30;65.20
63047;DHT22;62025;39.238;9.126;2023-01-23T16:26:48;11.20;65.30
63047;DHT22;62025;39.238;9.126;2023-01-23T16:29:32;11.30;65.10
63047;DHT22;62025;39.238;9.126;2023-01-23T16:32:09;11.20;65.00
63047;DHT22;62025;39.238;9.126;2023-01-23T16:34:38;11.20;65.00
63047;DHT22;62025;39.238;9.126;2023-01-23T16:37:13;11.20;64.90
63047;DHT22;62025;39.238;9.126;2023-01-23T16:39:41;11.20;64.90
63047;DHT22;62025;39.238;9.126;2023-01-23T16:42:20;11.10;65.20
63047;DHT22;62025;39.238;9.126;2023-01-23T16:44:47;11.20;64.90
63047;DHT22;62025;39.238;9.126;2023-01-23T16:47:14;11.10;65.20
63047;DHT22;62025;39.238;9.126;2023-01-23T16:49:40;11.00;65.10
63047;DHT22;62025;39.238;9.126;2023-01-23T16:52:06;11.00;65.20
63047;DHT22;62025;39.238;9.126;2023-01-23T16:54:32;11.10;65.00
63047;DHT22;62025;39.238;9.126;2023-01-23T16:57:00;11.00;65.00
63047;DHT22;62025;39.238;9.126;2023-01-23T16:59:34;11.10;65.00
63047;DHT22;62025;39.238;9.126;2023-01-23T17:04:42;11.00;65.30
63047;DHT22;62025;39.238;9.126;2023-01-23T17:07:13;11.00;65.50
63047;DHT22;62025;39.238;9.126;2023-01-23T17:09:43;11.00;65.40
63047;DHT22;62025;39.238;9.126;2023-01-23T17:12:19;11.00;65.50
63047;DHT22;62025;39.238;9.126;2023-01-23T17:14:47;11.00;65.80
63047;DHT22;62025;39.238;9.126;2023-01-23T17:17:23;11.00;65.90
63047;DHT22;62025;39.238;9.126;2023-01-23T17:19:57;11.00;66.20
63047;DHT22;62025;39.238;9.126;2023-01-23T17:22:28;10.90;66.70
63047;DHT22;62025;39.238;9.126;2023-01-23T17:24:55;10.90;66.60
63047;DHT22;62025;39.238;9.126;2023-01-23T17:27:21;10.90;66.70
63047;DHT22;62025;39.238;9.126;2023-01-23T17:29:47;11.00;66.40
63047;DHT22;62025;39.238;9.126;2023-01-23T17:32:23;10.80;66.70
63047;DHT22;62025;39.238;9.126;2023-01-23T17:34:54;10.90;66.30
63047;DHT22;62025;39.238;9.126;2023-01-23T17:37:21;11.00;65.70
63047;DHT22;62025;39.238;9.126;2023-01-23T17:39:48;11.00;65.60
63047;DHT22;62025;39.238;9.126;2023-01-23T17:42:14;11.00;65.70
63047;DHT22;62025;39.238;9.126;2023-01-23T17:44:40;11.00;65.80
63047;DHT22;62025;39.238;9.126;2023-01-23T17:47:11;11.00;65.60
63047;DHT22;62025;39.238;9.126;2023-01-23T17:49:39;10.90;65.90
63047;DHT22;62025;39.238;9.126;2023-01-23T17:52:10;10.90;66.30
63047;DHT22;62025;39.238;9.126;2023-01-23T17:54:36;10.90;66.50
63047;DHT22;62025;39.238;9.126;2023-01-23T17:57:02;11.00;66.30
63047;DHT22;62025;39.238;9.126;2023-01-23T17:59:29;10.90;66.70
63047;DHT22;62025;39.238;9.126;2023-01-23T18:01:56;10.80;68.20
63047;DHT22;62025;39.238;9.126;2023-01-23T18:04:22;10.90;68.00
63047;DHT22;62025;39.238;9.126;2023-01-23T18:06:49;10.70;68.70
63047;DHT22;62025;39.238;9.126;2023-01-23T18:09:16;10.50;69.20
63047;DHT22;62025;39.238;9.126;2023-01-23T18:11:45;10.50;69.40
63047;DHT22;62025;39.238;9.126;2023-01-23T18:17:44;10.30;69.40
63047;DHT22;62025;39.238;9.126;2023-01-23T18:20:32;10.00;68.80
63047;DHT22;62025;39.238;9.126;2023-01-23T18:23:00;10.10;69.20
63047;DHT22;62025;39.238;9.126;2023-01-23T18:25:34;10.00;69.90
63047;DHT22;62025;39.238;9.126;2023-01-23T18:28:05;9.80;69.70
63047;DHT22;62025;39.238;9.126;2023-01-23T18:30:58;9.80;68.00
63047;DHT22;62025;39.238;9.126;2023-01-23T18:37:24;9.90;67.10
63047;DHT22;62025;39.238;9.126;2023-01-23T18:40:26;9.90;66.20
63047;DHT22;62025;39.238;9.126;2023-01-23T18:46:20;9.90;66.00